createdAt,value
2022-08-16T00:02:30.465Z,96557.28
2022-08-16T00:05:00.116Z,96559.13
2022-08-16T00:07:30.346Z,96559.13
2022-08-16T00:10:00.438Z,96554.88
2022-08-16T00:12:29.495Z,96553.25
2022-08-16T00:14:58.792Z,96557.00
2022-08-16T00:17:26.450Z,96566.41
2022-08-16T00:19:55.668Z,96566.91
2022-08-16T00:22:24.850Z,96555.09
2022-08-16T00:24:53.458Z,96557.25
2022-08-16T00:27:21.132Z,96558.44
2022-08-16T00:29:48.352Z,96562.59
2022-08-16T00:32:28.341Z,96556.59
2022-08-16T00:35:00.467Z,96554.75
2022-08-16T00:37:58.612Z,96550.94
2022-08-16T00:40:34.450Z,96560.31
2022-08-16T00:43:12.062Z,96554.81
2022-08-16T00:46:33.239Z,96561.94
2022-08-16T00:49:17.490Z,96563.59
2022-08-16T00:51:54.874Z,96555.81
2022-08-16T00:54:24.826Z,96559.84
2022-08-16T00:56:57.948Z,96556.69
2022-08-16T00:59:29.053Z,96561.88
2022-08-16T01:01:56.312Z,96560.94
2022-08-16T01:04:29.957Z,96550.94
2022-08-16T01:07:01.101Z,96553.13
2022-08-16T01:09:33.442Z,96548.53
2022-08-16T01:12:03.338Z,96551.75
2022-08-16T01:14:34.898Z,96561.28
2022-08-16T01:17:03.391Z,96565.66
2022-08-16T01:19:48.386Z,96572.16
2022-08-16T01:22:52.787Z,96568.22
2022-08-16T01:25:34.416Z,96570.22
2022-08-16T01:28:07.056Z,96576.75
2022-08-16T01:30:40.016Z,96577.75
2022-08-16T01:33:19.183Z,96586.09
2022-08-16T01:35:52.523Z,96593.41
2022-08-16T01:38:30.822Z,96599.09
2022-08-16T01:41:19.190Z,96599.28
2022-08-16T01:43:53.749Z,96591.25
2022-08-16T01:46:39.388Z,96590.06
2022-08-16T01:49:11.686Z,96588.25
2022-08-16T01:51:40.401Z,96591.44
2022-08-16T01:54:07.976Z,96589.41
2022-08-16T01:56:35.865Z,96587.75
2022-08-16T01:59:16.041Z,96591.09
2022-08-16T02:01:52.850Z,96587.56
2022-08-16T02:04:49.371Z,96584.91
2022-08-16T02:07:13.899Z,96591.38
2022-08-16T02:09:41.294Z,96583.06
2022-08-16T02:12:49.981Z,96574.91
2022-08-16T02:14:57.056Z,96578.88
2022-08-16T02:17:26.308Z,96581.53
2022-08-16T02:20:00.178Z,96566.34
2022-08-16T02:22:33.768Z,96568.34
2022-08-16T02:25:04.952Z,96570.00
2022-08-16T02:27:32.356Z,96568.31
2022-08-16T02:30:05.035Z,96574.59
2022-08-16T02:32:50.997Z,96569.63
2022-08-16T02:35:22.913Z,96574.22
2022-08-16T02:37:52.324Z,96578.41
2022-08-16T02:40:22.055Z,96587.38
2022-08-16T02:42:50.649Z,96590.72
2022-08-16T02:45:20.291Z,96587.72
2022-08-16T02:48:00.252Z,96588.59
2022-08-16T02:50:53.750Z,96601.41
2022-08-16T02:53:18.335Z,96598.28
2022-08-16T02:55:50.518Z,96597.94
2022-08-16T02:58:17.970Z,96604.69
2022-08-16T03:00:45.645Z,96596.38
2022-08-16T03:03:18.039Z,96599.91
2022-08-16T03:05:52.238Z,96605.34
2022-08-16T03:08:50.762Z,96604.53
2022-08-16T03:11:16.730Z,96603.84
2022-08-16T03:13:51.580Z,96604.53
2022-08-16T03:16:38.470Z,96599.72
2022-08-16T03:19:08.262Z,96605.38
2022-08-16T03:21:38.043Z,96597.88
2022-08-16T03:24:28.942Z,96603.38
2022-08-16T03:26:59.573Z,96605.56
2022-08-16T03:29:33.728Z,96603.56
2022-08-16T03:32:01.962Z,96602.41
2022-08-16T03:34:29.994Z,96604.41
2022-08-16T03:36:57.231Z,96598.91
2022-08-16T03:39:23.952Z,96605.56
2022-08-16T03:41:59.223Z,96593.41
2022-08-16T03:44:43.515Z,96596.06
2022-08-16T03:47:19.143Z,96600.06
2022-08-16T03:49:51.560Z,96593.06
2022-08-16T03:52:20.388Z,96587.91
2022-08-16T03:54:57.812Z,96583.91
2022-08-16T03:57:31.798Z,96591.56
2022-08-16T04:00:20.683Z,96593.88
2022-08-16T04:03:07.040Z,96594.88
2022-08-16T04:05:36.308Z,96594.56
2022-08-16T04:08:22.821Z,96600.19
2022-08-16T04:10:52.959Z,96602.03
2022-08-16T04:14:01.619Z,96596.03
2022-08-16T04:16:07.924Z,96597.69
2022-08-16T04:18:38.689Z,96590.53
2022-08-16T04:21:06.123Z,96587.69
2022-08-16T04:23:32.764Z,96587.22
2022-08-16T04:26:02.124Z,96588.72
2022-08-16T04:28:55.919Z,96592.72
2022-08-16T04:31:15.772Z,96583.56
2022-08-16T04:33:51.060Z,96586.25
2022-08-16T04:36:20.076Z,96594.41
2022-08-16T04:38:47.194Z,96601.09
2022-08-16T04:41:17.607Z,96604.25
2022-08-16T04:43:44.629Z,96600.75
2022-08-16T04:46:19.989Z,96610.19
2022-08-16T04:49:03.472Z,96618.41
2022-08-16T04:51:36.101Z,96604.97
2022-08-16T04:54:03.442Z,96606.41
2022-08-16T04:56:31.025Z,96606.16
2022-08-16T04:58:58.075Z,96608.81
2022-08-16T05:01:47.803Z,96609.56
2022-08-16T05:04:19.368Z,96613.91
2022-08-16T05:06:46.714Z,96601.69
2022-08-16T05:09:14.449Z,96613.22
2022-08-16T05:11:43.034Z,96626.22
2022-08-16T05:14:09.845Z,96633.53
2022-08-16T05:16:36.524Z,96623.88
2022-08-16T05:19:04.885Z,96621.81
2022-08-16T05:21:36.009Z,96615.34
2022-08-16T05:24:07.107Z,96618.81
2022-08-16T05:26:34.095Z,96624.50
2022-08-16T05:29:03.732Z,96619.50
2022-08-16T05:31:31.730Z,96616.03
2022-08-16T05:34:03.737Z,96618.13
2022-08-16T05:36:34.077Z,96613.66
2022-08-16T05:39:08.829Z,96618.53
2022-08-16T05:41:45.004Z,96615.81
2022-08-16T05:44:24.107Z,96619.44
2022-08-16T05:46:57.419Z,96627.84
2022-08-16T05:49:39.490Z,96628.47
2022-08-16T05:52:11.203Z,96634.91
2022-08-16T05:54:46.539Z,96640.56
2022-08-16T05:57:15.084Z,96638.25
2022-08-16T05:59:41.718Z,96636.59
2022-08-16T06:02:08.289Z,96640.75
2022-08-16T06:04:37.228Z,96639.84
2022-08-16T06:07:08.246Z,96646.34
2022-08-16T06:09:43.476Z,96644.47
2022-08-16T06:12:27.337Z,96645.97
2022-08-16T06:14:59.486Z,96646.59
2022-08-16T06:17:42.254Z,96643.91
2022-08-16T06:20:14.845Z,96638.56
2022-08-16T06:22:47.892Z,96642.44
2022-08-16T06:25:35.583Z,96645.13
2022-08-16T06:28:08.816Z,96640.13
2022-08-16T06:30:36.232Z,96649.56
2022-08-16T06:33:12.463Z,96651.88
2022-08-16T06:35:41.443Z,96647.63
2022-08-16T06:38:31.976Z,96640.59
2022-08-16T06:40:55.539Z,96647.50
2022-08-16T06:43:22.308Z,96645.44
2022-08-16T06:45:54.690Z,96644.06
2022-08-16T06:48:32.284Z,96649.88
2022-08-16T06:51:01.605Z,96645.91
2022-08-16T06:53:29.657Z,96651.38
2022-08-16T06:55:58.950Z,96655.19
2022-08-16T06:58:31.676Z,96652.56
2022-08-16T07:01:00.199Z,96641.09
2022-08-16T07:03:32.511Z,96656.34
2022-08-16T07:05:59.865Z,96651.16
2022-08-16T07:08:27.944Z,96650.47
2022-08-16T07:10:56.513Z,96654.63
2022-08-16T07:13:53.135Z,96647.25
2022-08-16T07:16:15.301Z,96651.81
2022-08-16T07:19:01.412Z,96653.59
2022-08-16T07:21:46.271Z,96654.34
2022-08-16T07:24:30.375Z,96646.94
2022-08-16T07:26:59.039Z,96647.53
2022-08-16T07:29:27.895Z,96651.53
2022-08-16T07:31:59.579Z,96651.81
2022-08-16T07:34:35.384Z,96654.25
2022-08-16T07:37:12.047Z,96650.72
2022-08-16T07:39:43.306Z,96649.78
2022-08-16T07:42:10.943Z,96652.16
2022-08-16T07:44:52.629Z,96649.22
2022-08-16T07:47:19.390Z,96640.41
2022-08-16T07:49:53.240Z,96646.38
2022-08-16T07:52:25.208Z,96642.38
2022-08-16T07:54:57.263Z,96645.59
2022-08-16T07:57:24.614Z,96650.25
2022-08-16T07:59:51.911Z,96648.38
2022-08-16T08:02:19.690Z,96648.34
2022-08-16T08:04:47.711Z,96655.81
2022-08-16T08:07:16.107Z,96658.81
2022-08-16T08:09:43.924Z,96652.75
2022-08-16T08:12:32.447Z,96652.94
2022-08-16T08:14:58.296Z,96648.50
2022-08-16T08:17:25.286Z,96654.41
2022-08-16T08:20:12.805Z,96647.59
2022-08-16T08:22:49.379Z,96650.38
2022-08-16T08:25:16.368Z,96643.31
2022-08-16T08:27:44.203Z,96653.81
2022-08-16T08:31:00.795Z,96641.66
2022-08-16T08:33:02.336Z,96651.69
2022-08-16T08:35:29.803Z,96648.19
2022-08-16T08:37:56.727Z,96642.97
2022-08-16T08:40:26.758Z,96645.81
2022-08-16T08:43:00.159Z,96643.81
2022-08-16T08:45:45.305Z,96642.53
2022-08-16T08:48:34.189Z,96638.59
2022-08-16T08:51:10.189Z,96643.03
2022-08-16T08:53:38.233Z,96637.91
2022-08-16T08:56:23.174Z,96640.22
2022-08-16T08:58:54.959Z,96639.13
2022-08-16T09:01:36.479Z,96633.16
2022-08-16T09:04:10.419Z,96636.63
2022-08-16T09:06:43.718Z,96631.56
2022-08-16T09:09:16.870Z,96628.38
2022-08-16T09:11:47.254Z,96626.38
2022-08-16T09:14:24.647Z,96625.66
2022-08-16T09:17:01.173Z,96631.47
2022-08-16T09:19:31.991Z,96633.25
2022-08-16T09:22:01.009Z,96615.47
2022-08-16T09:24:52.008Z,96620.38
2022-08-16T09:27:14.885Z,96619.25
2022-08-16T09:29:45.266Z,96613.81
2022-08-16T09:32:12.770Z,96613.19
2022-08-16T09:34:58.623Z,96613.44
2022-08-16T09:37:29.398Z,96610.47
2022-08-16T09:39:59.706Z,96612.72
2022-08-16T09:42:30.700Z,96604.56
2022-08-16T09:45:18.400Z,96604.72
2022-08-16T09:47:56.215Z,96603.91
2022-08-16T09:50:26.287Z,96596.63
2022-08-16T09:53:05.176Z,96593.16
2022-08-16T09:55:33.418Z,96592.34
2022-08-16T09:58:12.312Z,96598.47
2022-08-16T10:00:57.790Z,96595.75
2022-08-16T10:03:29.568Z,96589.81
2022-08-16T10:05:57.657Z,96593.72
2022-08-16T10:08:25.903Z,96581.66
2022-08-16T10:11:12.031Z,96592.31
2022-08-16T10:13:39.535Z,96582.59
2022-08-16T10:19:00.144Z,96581.00
2022-08-16T10:21:23.843Z,96579.53
2022-08-16T10:23:53.666Z,96573.59
2022-08-16T10:27:00.583Z,96580.75
2022-08-16T10:29:08.571Z,96587.09
2022-08-16T10:31:45.417Z,96580.44
2022-08-16T10:34:31.982Z,96587.81
2022-08-16T10:37:01.952Z,96581.69
2022-08-16T10:39:41.107Z,96580.50
2022-08-16T10:42:13.271Z,96582.41
2022-08-16T10:44:40.672Z,96578.31
2022-08-16T10:47:10.028Z,96567.00
2022-08-16T10:49:39.061Z,96578.53
2022-08-16T10:52:18.109Z,96564.56
2022-08-16T10:57:32.998Z,96561.69
2022-08-16T11:00:00.017Z,96569.13
2022-08-16T11:03:37.750Z,96560.03
2022-08-16T11:05:16.818Z,96569.41
2022-08-16T11:07:52.371Z,96568.28
2022-08-16T11:17:00.949Z,96554.44
2022-08-16T11:19:06.483Z,96555.16
2022-08-16T11:22:38.944Z,96560.56
2022-08-16T11:24:40.189Z,96556.56
2022-08-16T11:27:19.640Z,96564.84
2022-08-16T11:29:49.361Z,96562.31
2022-08-16T11:32:20.314Z,96549.06
2022-08-16T11:35:10.509Z,96554.75
2022-08-16T11:40:32.351Z,96550.00
2022-08-16T11:43:01.461Z,96548.63
2022-08-16T11:45:33.737Z,96546.28
2022-08-16T11:48:03.257Z,96549.38
2022-08-16T11:50:33.541Z,96545.56
2022-08-16T11:53:03.611Z,96546.03
2022-08-16T11:55:31.941Z,96544.38
2022-08-16T11:58:00.363Z,96545.50
2022-08-16T12:00:33.729Z,96546.72
2022-08-16T12:03:16.323Z,96547.22
2022-08-16T12:05:45.223Z,96545.03
2022-08-16T12:08:12.892Z,96548.34
2022-08-16T12:10:40.744Z,96547.84
2022-08-16T12:13:10.803Z,96547.19
2022-08-16T12:15:37.968Z,96546.31
2022-08-16T12:18:05.470Z,96538.13
2022-08-16T12:20:36.575Z,96544.03
2022-08-16T12:23:03.850Z,96545.31
2022-08-16T12:25:32.689Z,96537.78
2022-08-16T12:28:02.875Z,96546.66
2022-08-16T12:30:36.362Z,96541.41
2022-08-16T12:33:06.911Z,96537.13
2022-08-16T12:35:35.655Z,96542.03
2022-08-16T12:38:38.133Z,96535.50
2022-08-16T12:40:50.944Z,96529.38
2022-08-16T12:43:23.478Z,96529.63
2022-08-16T12:45:53.635Z,96531.78
2022-08-16T12:48:42.353Z,96536.53
2022-08-16T12:51:20.065Z,96530.28
2022-08-16T12:53:52.750Z,96530.75
2022-08-16T12:56:21.655Z,96532.13
2022-08-16T12:58:52.503Z,96533.53
2022-08-16T13:01:26.766Z,96526.34
2022-08-16T13:04:20.317Z,96531.13
2022-08-16T13:06:45.378Z,96520.09
2022-08-16T13:09:31.883Z,96518.50
2022-08-16T13:12:19.206Z,96509.88
2022-08-16T13:14:47.375Z,96511.53
2022-08-16T13:17:29.806Z,96514.97
2022-08-16T13:20:07.631Z,96512.84
2022-08-16T13:22:41.385Z,96516.66
2022-08-16T13:25:10.143Z,96511.06
2022-08-16T13:28:15.034Z,96511.56
2022-08-16T13:30:37.540Z,96508.03
2022-08-16T13:33:12.694Z,96511.63
2022-08-16T13:35:43.902Z,96501.78
2022-08-16T13:38:24.383Z,96502.53
2022-08-16T13:40:56.807Z,96493.88
2022-08-16T13:43:26.710Z,96502.06
2022-08-16T13:45:55.435Z,96500.13
2022-08-16T13:48:25.268Z,96502.75
2022-08-16T13:50:58.029Z,96502.34
2022-08-16T13:53:29.234Z,96500.94
2022-08-16T13:55:57.935Z,96494.66
2022-08-16T13:58:36.480Z,96493.34
2022-08-16T14:01:09.969Z,96493.13
2022-08-16T14:03:40.363Z,96492.91
2022-08-16T14:06:10.559Z,96495.75
2022-08-16T14:08:42.020Z,96484.47
2022-08-16T14:11:11.991Z,96482.31
2022-08-16T14:13:40.181Z,96484.41
2022-08-16T14:16:12.470Z,96482.31
2022-08-16T14:18:52.611Z,96479.53
2022-08-16T14:21:19.571Z,96473.75
2022-08-16T14:23:49.102Z,96478.34
2022-08-16T14:26:15.657Z,96481.84
2022-08-16T14:28:42.736Z,96476.84
2022-08-16T14:31:09.578Z,96474.44
2022-08-16T14:33:36.383Z,96469.88
2022-08-16T14:36:03.226Z,96473.94
2022-08-16T14:38:39.300Z,96477.28
2022-08-16T14:41:10.135Z,96473.59
2022-08-16T14:43:37.167Z,96467.84
2022-08-16T14:46:07.564Z,96463.00
2022-08-16T14:48:34.692Z,96457.06
2022-08-16T14:51:01.583Z,96469.13
2022-08-16T14:53:29.236Z,96456.34
2022-08-16T14:56:00.116Z,96453.47
2022-08-16T14:58:34.518Z,96453.72
2022-08-16T15:01:03.619Z,96454.50
2022-08-16T15:03:30.325Z,96450.19
2022-08-16T15:06:00.490Z,96454.19
2022-08-16T15:08:34.096Z,96451.94
2022-08-16T15:11:04.956Z,96447.16
2022-08-16T15:13:31.507Z,96446.50
2022-08-16T15:16:02.454Z,96445.94
2022-08-16T15:18:31.958Z,96443.91
2022-08-16T15:20:59.239Z,96442.25
2022-08-16T15:23:25.806Z,96439.97
2022-08-16T15:26:03.722Z,96444.16
2022-08-16T15:28:32.665Z,96448.78
2022-08-16T15:31:04.657Z,96447.94
2022-08-16T15:33:44.443Z,96451.25
2022-08-16T15:36:18.036Z,96446.91
2022-08-16T15:39:02.553Z,96447.41
2022-08-16T15:41:44.201Z,96440.25
2022-08-16T15:44:22.300Z,96449.78
2022-08-16T15:46:56.745Z,96448.97
2022-08-16T15:49:37.961Z,96449.31
2022-08-16T15:52:29.809Z,96444.94
2022-08-16T15:54:58.000Z,96444.09
2022-08-16T15:57:27.028Z,96443.97
2022-08-16T15:59:55.881Z,96444.56
2022-08-16T16:02:32.018Z,96439.59
2022-08-16T16:05:04.721Z,96446.00
2022-08-16T16:07:33.485Z,96441.41
2022-08-16T16:10:05.121Z,96446.28
2022-08-16T16:12:53.237Z,96445.09
2022-08-16T16:15:29.353Z,96437.78
2022-08-16T16:17:56.959Z,96441.00
2022-08-16T16:20:27.156Z,96436.72
2022-08-16T16:22:57.194Z,96439.59
2022-08-16T16:25:24.801Z,96440.94
2022-08-16T16:27:55.827Z,96437.75
2022-08-16T16:30:38.000Z,96437.09
2022-08-16T16:33:15.650Z,96438.41
2022-08-16T16:35:55.354Z,96440.06
2022-08-16T16:38:30.442Z,96438.53
2022-08-16T16:40:58.723Z,96440.59
2022-08-16T16:43:31.720Z,96436.16
2022-08-16T16:46:00.659Z,96438.75
2022-08-16T16:48:35.091Z,96445.47
2022-08-16T16:51:09.553Z,96446.03
2022-08-16T16:53:41.044Z,96436.31
2022-08-16T16:56:10.362Z,96438.50
2022-08-16T16:59:02.181Z,96444.41
2022-08-16T17:01:35.194Z,96439.31
2022-08-16T17:04:27.436Z,96445.47
2022-08-16T17:06:58.936Z,96437.25
2022-08-16T17:09:51.875Z,96441.84
2022-08-16T17:12:46.328Z,96440.66
2022-08-16T17:15:11.520Z,96441.97
2022-08-16T17:17:58.953Z,96445.19
2022-08-16T17:20:26.564Z,96448.72
2022-08-16T17:22:55.269Z,96440.91
2022-08-16T17:25:24.002Z,96448.19
2022-08-16T17:27:51.677Z,96454.75
2022-08-16T17:30:22.293Z,96454.72
2022-08-16T17:33:01.220Z,96458.47
2022-08-16T17:35:34.679Z,96451.69
2022-08-16T17:38:06.840Z,96451.44
2022-08-16T17:40:46.997Z,96456.09
2022-08-16T17:43:29.583Z,96458.59
2022-08-16T17:45:56.754Z,96461.38
2022-08-16T17:48:23.601Z,96465.28
2022-08-16T17:50:54.811Z,96473.13
2022-08-16T17:53:21.775Z,96465.41
2022-08-16T17:55:50.417Z,96472.38
2022-08-16T17:58:22.242Z,96459.34
2022-08-16T18:00:52.686Z,96472.16
2022-08-16T18:03:40.796Z,96470.63
2022-08-16T18:06:23.174Z,96475.69
2022-08-16T18:08:55.902Z,96476.06
2022-08-16T18:11:27.465Z,96484.69
2022-08-16T18:13:55.083Z,96481.84
2022-08-16T18:16:21.841Z,96483.19
2022-08-16T18:18:48.459Z,96488.41
2022-08-16T18:21:33.729Z,96478.50
2022-08-16T18:24:00.724Z,96479.13
2022-08-16T18:26:27.341Z,96490.75
2022-08-16T18:28:54.060Z,96488.28
2022-08-16T18:31:20.652Z,96489.69
2022-08-16T18:33:47.235Z,96495.44
2022-08-16T18:36:21.136Z,96497.44
2022-08-16T18:38:49.623Z,96495.56
2022-08-16T18:41:17.580Z,96502.53
2022-08-16T18:43:58.839Z,96505.16
2022-08-16T18:46:30.889Z,96517.25
2022-08-16T18:48:57.403Z,96515.88
2022-08-16T18:51:25.499Z,96518.28
2022-08-16T18:53:52.400Z,96513.91
2022-08-16T18:56:19.029Z,96519.84
2022-08-16T18:58:45.562Z,96526.13
2022-08-16T19:01:12.164Z,96518.94
2022-08-16T19:03:38.702Z,96524.66
2022-08-16T19:06:11.303Z,96527.97
2022-08-16T19:08:40.164Z,96534.75
2022-08-16T19:11:11.466Z,96534.78
2022-08-16T19:13:40.295Z,96537.38
2022-08-16T19:16:07.549Z,96543.06
2022-08-16T19:18:36.328Z,96545.00
2022-08-16T19:21:05.434Z,96552.94
2022-08-16T19:23:35.885Z,96551.13
2022-08-16T19:26:07.848Z,96559.91
2022-08-16T19:28:58.468Z,96563.22
2022-08-16T19:31:30.120Z,96561.00
2022-08-16T19:33:57.644Z,96557.69
2022-08-16T19:36:31.730Z,96569.13
2022-08-16T19:39:09.285Z,96570.88
2022-08-16T19:41:37.915Z,96563.22
2022-08-16T19:44:05.953Z,96571.22
2022-08-16T19:46:32.981Z,96575.91
2022-08-16T19:48:59.691Z,96580.31
2022-08-16T19:51:26.351Z,96580.22
2022-08-16T19:53:52.911Z,96585.06
2022-08-16T19:56:21.587Z,96580.72
2022-08-16T19:59:17.047Z,96581.00
2022-08-16T20:01:41.132Z,96585.28
2022-08-16T20:04:11.871Z,96598.50
2022-08-16T20:06:39.074Z,96593.34
2022-08-16T20:09:06.535Z,96597.28
2022-08-16T20:11:34.811Z,96594.59
2022-08-16T20:14:01.747Z,96594.66
2022-08-16T20:16:28.330Z,96589.91
2022-08-16T20:18:54.927Z,96592.59
2022-08-16T20:21:21.522Z,96591.44
2022-08-16T20:23:48.102Z,96593.34
2022-08-16T20:26:14.665Z,96601.91
2022-08-16T20:28:53.847Z,96603.75
2022-08-16T20:31:25.039Z,96600.59
2022-08-16T20:33:53.177Z,96606.97
2022-08-16T20:36:19.967Z,96606.47
2022-08-16T20:38:47.410Z,96599.81
2022-08-16T20:41:14.976Z,96604.16
2022-08-16T20:43:41.621Z,96598.16
2022-08-16T20:46:50.883Z,96598.88
2022-08-16T20:56:37.593Z,96606.75
2022-08-16T21:13:25.770Z,96608.91
2022-08-16T21:23:13.244Z,96621.59
2022-08-16T21:25:52.765Z,96626.56
2022-08-16T21:28:39.402Z,96616.22
2022-08-16T21:31:12.767Z,96627.06
2022-08-16T21:33:39.497Z,96629.38
2022-08-16T21:36:06.410Z,96625.84
2022-08-16T21:38:32.952Z,96627.50
2022-08-16T21:40:59.947Z,96620.34
2022-08-16T21:43:32.265Z,96619.50
2022-08-16T21:46:03.394Z,96618.81
2022-08-16T21:48:33.975Z,96622.75
2022-08-16T21:51:04.845Z,96626.97
2022-08-16T21:53:31.511Z,96624.44
2022-08-16T21:55:59.535Z,96622.09
2022-08-16T21:58:26.333Z,96618.78
2022-08-16T22:00:53.041Z,96618.88
2022-08-16T22:03:19.935Z,96626.94
2022-08-16T22:06:13.456Z,96627.78
2022-08-16T22:08:35.849Z,96625.38
2022-08-16T22:11:17.284Z,96631.56
2022-08-16T22:13:51.297Z,96630.88
2022-08-16T22:16:34.234Z,96635.78
2022-08-16T22:19:01.900Z,96629.97
2022-08-16T22:21:29.534Z,96634.81
2022-08-16T22:23:58.457Z,96631.19
2022-08-16T22:26:31.696Z,96641.34
2022-08-16T22:29:00.826Z,96637.66
2022-08-16T22:31:27.531Z,96634.94
2022-08-16T22:33:55.948Z,96637.13
2022-08-16T22:36:22.651Z,96632.28
2022-08-16T22:38:56.285Z,96640.75
2022-08-16T22:41:24.763Z,96636.38
2022-08-16T22:43:51.821Z,96635.16
2022-08-16T22:46:19.463Z,96634.31
2022-08-16T22:48:46.398Z,96635.50
2022-08-16T22:51:13.102Z,96636.03
2022-08-16T22:53:39.805Z,96629.91
2022-08-16T22:56:06.632Z,96626.63
2022-08-16T22:58:36.190Z,96627.78
2022-08-16T23:01:05.839Z,96634.53
2022-08-16T23:03:33.472Z,96617.38
2022-08-16T23:06:00.782Z,96616.25
2022-08-16T23:08:38.031Z,96610.22
2022-08-16T23:11:06.594Z,96611.56
2022-08-16T23:13:33.103Z,96615.75
2022-08-16T23:16:10.722Z,96614.31
2022-08-16T23:18:37.613Z,96613.66
2022-08-16T23:21:08.697Z,96622.59
2022-08-16T23:23:36.006Z,96621.94
2022-08-16T23:26:03.205Z,96629.31
2022-08-16T23:28:49.811Z,96632.34
2022-08-16T23:31:16.691Z,96627.78
2022-08-16T23:33:43.285Z,96625.44
2022-08-16T23:36:10.546Z,96626.47
2022-08-16T23:38:39.535Z,96632.97
2022-08-16T23:41:11.321Z,96617.75
2022-08-16T23:43:43.086Z,96620.41
2022-08-16T23:46:16.849Z,96619.84
2022-08-16T23:50:01.795Z,96619.47
2022-08-16T23:51:31.072Z,96619.22
2022-08-16T23:53:57.749Z,96616.50
2022-08-16T23:56:25.705Z,96617.06
2022-08-16T23:59:02.393Z,96607.31
